Time;durP1;ratioP1;P1;durP2;ratioP2;P2;SDS_P1;SDS_P2;PMS_P1;PMS_P2;Temp;Humidity;BMP_temperature;BMP_pressure;BME280_temperature;BME280_humidity;BME280_pressure;Samples;Min_cycle;Max_cycle;Signal;HPM_P1;HPM_P2
2023/12/10 00:00:04;;;;;;;19.63;4.90;;;;;;;7.38;100.00;98754.09;5068501;28;20169;-62
2023/12/10 00:02:29;;;;;;;22.77;4.63;;;;;;;7.42;100.00;98757.28;5076072;28;20295;-63
2023/12/10 00:04:55;;;;;;;21.57;4.93;;;;;;;7.42;100.00;98762.38;5063443;28;20268;-63
2023/12/10 00:07:20;;;;;;;21.07;5.43;;;;;;;7.37;100.00;98761.88;5062575;28;20634;-64
2023/12/10 00:09:46;;;;;;;24.43;5.27;;;;;;;7.40;100.00;98762.47;5060222;28;20204;-63
2023/12/10 00:12:11;;;;;;;21.50;4.63;;;;;;;7.40;100.00;98753.97;5056415;28;20295;-63
2023/12/10 00:14:36;;;;;;;19.07;4.83;;;;;;;7.25;100.00;98756.56;5069212;28;20263;-63
2023/12/10 00:17:01;;;;;;;23.77;5.27;;;;;;;7.32;100.00;98745.94;5055099;28;20174;-63
2023/12/10 00:19:27;;;;;;;22.90;5.27;;;;;;;7.23;100.00;98745.63;5055343;28;20266;-63
2023/12/10 00:21:52;;;;;;;25.43;5.33;;;;;;;7.31;100.00;98744.34;5069983;28;20714;-63
2023/12/10 00:24:18;;;;;;;26.13;4.97;;;;;;;7.36;100.00;98755.09;5069617;28;20543;-63
2023/12/10 00:26:43;;;;;;;22.67;6.10;;;;;;;7.39;100.00;98763.41;5057084;28;20265;-62
2023/12/10 00:29:08;;;;;;;29.57;6.33;;;;;;;7.49;100.00;98770.50;5051686;28;20261;-62
2023/12/10 00:31:34;;;;;;;28.43;6.23;;;;;;;7.66;100.00;98780.47;5032466;28;20283;-63
2023/12/10 00:33:59;;;;;;;26.10;5.77;;;;;;;7.68;100.00;98786.31;5056066;28;20589;-63
2023/12/10 00:36:24;;;;;;;29.43;5.70;;;;;;;7.63;100.00;98793.47;5055086;28;20186;-63
2023/12/10 00:38:50;;;;;;;26.77;6.23;;;;;;;7.70;100.00;98804.13;5055543;28;20193;-63
2023/12/10 00:41:15;;;;;;;23.30;5.03;;;;;;;7.73;100.00;98798.84;5054938;28;20231;-63
2023/12/10 00:43:41;;;;;;;22.50;5.70;;;;;;;7.81;100.00;98808.59;5061414;28;20280;-64
2023/12/10 00:46:07;;;;;;;30.67;7.30;;;;;;;7.77;100.00;98813.06;5054775;28;20181;-64
2023/12/10 00:48:37;;;;;;;25.87;5.13;;;;;;;7.89;100.00;98822.53;5055086;28;20181;-64
2023/12/10 00:51:03;;;;;;;27.23;6.57;;;;;;;7.94;100.00;98827.38;5046490;28;20229;-64
2023/12/10 00:53:28;;;;;;;21.10;6.17;;;;;;;7.94;100.00;98831.66;5054545;28;20180;-64
2023/12/10 00:55:54;;;;;;;28.90;6.43;;;;;;;7.99;100.00;98837.28;5068205;28;20271;-64
2023/12/10 00:58:19;;;;;;;28.23;6.03;;;;;;;7.97;100.00;98832.28;5053335;28;20173;-64
2023/12/10 01:00:44;;;;;;;27.97;5.50;;;;;;;7.93;100.00;98846.19;5047668;28;20224;-64
2023/12/10 01:03:10;;;;;;;28.43;6.97;;;;;;;8.00;100.00;98847.47;5054118;28;20192;-65
2023/12/10 01:05:35;;;;;;;24.43;6.67;;;;;;;8.01;100.00;98855.94;5067689;28;20223;-65
2023/12/10 01:08:01;;;;;;;22.07;6.27;;;;;;;7.98;100.00;98856.97;5073679;28;20237;-64
2023/12/10 01:10:26;;;;;;;24.30;5.47;;;;;;;8.01;100.00;98871.31;5066746;28;20302;-63
2023/12/10 01:12:52;;;;;;;28.33;6.20;;;;;;;8.04;100.00;98866.81;5086672;28;20184;-63
2023/12/10 01:15:29;;;;;;;21.03;6.10;;;;;;;8.04;100.00;98876.25;5074226;28;20181;-64
2023/12/10 01:18:00;;;;;;;30.23;6.90;;;;;;;8.01;100.00;98879.00;5073340;28;20223;-64
2023/12/10 01:20:30;;;;;;;32.80;7.33;;;;;;;8.02;100.00;98889.13;5066302;28;20223;-63
2023/12/10 01:22:56;;;;;;;21.83;6.13;;;;;;;8.03;100.00;98897.66;5086230;28;20205;-64
2023/12/10 01:25:22;;;;;;;26.23;6.20;;;;;;;7.96;100.00;98899.78;5073472;28;20181;-64
2023/12/10 01:27:47;;;;;;;27.80;6.90;;;;;;;8.01;100.00;98900.31;5072346;28;20184;-63
2023/12/10 01:30:13;;;;;;;33.77;7.10;;;;;;;8.05;100.00;98919.69;5064639;28;20169;-64
2023/12/10 01:32:40;;;;;;;32.07;6.77;;;;;;;8.01;100.00;98918.25;5087590;28;20588;-64
2023/12/10 01:35:05;;;;;;;25.10;6.63;;;;;;;8.11;100.00;98917.66;5073161;28;20201;-64
2023/12/10 01:37:30;;;;;;;21.23;5.63;;;;;;;7.96;100.00;98932.25;5073263;28;20698;-64
2023/12/10 01:39:56;;;;;;;26.87;5.90;;;;;;;7.94;100.00;98934.06;5071583;28;20238;-64
2023/12/10 01:42:21;;;;;;;25.17;5.67;;;;;;;7.98;100.00;98931.22;5074746;28;20261;-63
2023/12/10 01:44:46;;;;;;;22.00;6.23;;;;;;;8.03;100.00;98931.75;5068106;28;20182;-64
2023/12/10 01:47:13;;;;;;;31.80;7.57;;;;;;;7.93;100.00;98933.25;5072884;28;20690;-65
2023/12/10 01:49:38;;;;;;;24.67;6.03;;;;;;;7.88;100.00;98930.97;5073167;28;20208;-65
2023/12/10 01:52:04;;;;;;;27.53;6.20;;;;;;;7.69;100.00;98944.09;5065654;28;20224;-64
2023/12/10 01:54:30;;;;;;;29.47;6.20;;;;;;;7.63;100.00;98949.59;5073571;28;20180;-64
2023/12/10 01:56:55;;;;;;;28.90;5.43;;;;;;;7.62;100.00;98945.38;5072942;28;20181;-64
2023/12/10 01:59:22;;;;;;;23.90;5.90;;;;;;;7.65;100.00;98959.72;5066602;28;20255;-63
2023/12/10 02:01:48;;;;;;;20.33;4.87;;;;;;;7.68;100.00;98967.25;5056593;28;20228;-64
2023/12/10 02:04:15;;;;;;;24.37;6.07;;;;;;;7.76;100.00;98967.56;5055345;28;20211;-63
2023/12/10 02:06:44;;;;;;;24.40;6.00;;;;;;;7.84;100.00;98967.09;5066410;28;20253;-63
2023/12/10 02:09:12;;;;;;;24.30;6.20;;;;;;;7.89;100.00;98977.91;5073078;28;20203;-64
2023/12/10 02:11:41;;;;;;;32.53;6.23;;;;;;;7.90;100.00;98977.81;5074812;28;20236;-64
2023/12/10 02:14:07;;;;;;;22.20;5.60;;;;;;;7.94;100.00;98985.28;5075527;28;20179;-64
2023/12/10 02:16:32;;;;;;;27.60;6.40;;;;;;;8.00;100.00;98992.59;5070511;28;20312;-65
2023/12/10 02:18:57;;;;;;;19.27;5.20;;;;;;;8.04;100.00;99000.00;5073080;28;20300;-64
2023/12/10 02:21:25;;;;;;;19.83;5.70;;;;;;;8.00;100.00;98997.72;5073217;28;20220;-64
2023/12/10 02:23:59;;;;;;;24.27;6.03;;;;;;;8.14;100.00;98997.69;5077700;28;20235;-64
2023/12/10 02:26:25;;;;;;;27.00;5.70;;;;;;;8.06;100.00;99005.84;5055894;28;20170;-64
2023/12/10 02:28:50;;;;;;;26.10;5.37;;;;;;;7.96;100.00;99009.88;5063261;28;20235;-64
2023/12/10 02:31:17;;;;;;;25.90;4.97;;;;;;;7.97;100.00;99003.84;5061095;28;20221;-65
2023/12/10 02:33:43;;;;;;;21.83;6.03;;;;;;;7.78;100.00;99013.56;5059021;28;20181;-65
2023/12/10 02:36:08;;;;;;;21.43;5.80;;;;;;;7.59;100.00;99012.94;5069529;28;20271;-64
2023/12/10 02:38:33;;;;;;;18.93;5.57;;;;;;;7.53;100.00;99008.19;5072093;28;20279;-64
2023/12/10 02:40:59;;;;;;;24.50;5.43;;;;;;;7.36;100.00;99004.06;5068522;28;20583;-64
2023/12/10 02:43:24;;;;;;;22.10;4.63;;;;;;;7.34;100.00;99016.09;5077795;28;20193;-64
2023/12/10 02:45:49;;;;;;;23.17;5.07;;;;;;;7.18;100.00;99016.19;5065770;28;20276;-64
2023/12/10 02:48:17;;;;;;;27.37;6.77;;;;;;;7.16;100.00;99018.00;5052639;28;20275;-64
2023/12/10 02:50:42;;;;;;;22.70;5.07;;;;;;;7.26;100.00;99016.56;5063548;28;20216;-64
2023/12/10 02:53:08;;;;;;;16.47;4.47;;;;;;;7.06;100.00;99022.84;5063028;28;20275;-64
2023/12/10 02:55:33;;;;;;;20.43;4.50;;;;;;;6.98;100.00;99026.75;5054949;28;20212;-64
2023/12/10 02:57:58;;;;;;;21.07;6.33;;;;;;;6.90;100.00;99019.50;5069807;28;20179;-64
2023/12/10 03:00:24;;;;;;;21.83;4.77;;;;;;;6.90;100.00;99034.84;5064190;28;20220;-64
2023/12/10 03:02:49;;;;;;;21.90;5.23;;;;;;;6.92;100.00;99038.13;5084414;28;20283;-63
2023/12/10 03:05:15;;;;;;;20.20;5.50;;;;;;;6.89;100.00;99031.44;5056720;28;20186;-64
2023/12/10 03:07:40;;;;;;;23.07;5.07;;;;;;;6.84;100.00;99032.63;5060950;28;20181;-63
2023/12/10 03:10:06;;;;;;;19.83;5.23;;;;;;;6.83;100.00;99036.09;5061644;28;20216;-63
2023/12/10 03:12:31;;;;;;;17.87;4.87;;;;;;;6.76;100.00;99035.59;5087194;28;20655;-63
2023/12/10 03:14:57;;;;;;;25.63;5.47;;;;;;;6.74;100.00;99038.25;5071442;28;20189;-64
2023/12/10 03:17:22;;;;;;;20.17;4.47;;;;;;;6.75;100.00;99037.34;5071304;28;20177;-63
2023/12/10 03:19:47;;;;;;;23.20;5.13;;;;;;;6.72;100.00;99050.31;5071340;28;20189;-63
2023/12/10 03:22:13;;;;;;;20.47;4.83;;;;;;;6.74;100.00;99043.38;5076902;28;20269;-63
2023/12/10 03:24:38;;;;;;;20.93;5.07;;;;;;;6.69;100.00;99052.22;5070532;28;20609;-63
2023/12/10 03:27:03;;;;;;;16.60;4.40;;;;;;;6.74;100.00;99058.69;5070951;28;20210;-63
2023/12/10 03:29:29;;;;;;;20.50;3.83;;;;;;;6.74;100.00;99063.81;5070737;28;20184;-63
2023/12/10 03:31:54;;;;;;;16.93;4.77;;;;;;;6.82;100.00;99065.13;5075367;28;20310;-63
2023/12/10 03:34:19;;;;;;;17.30;3.87;;;;;;;6.82;100.00;99062.56;5070485;28;20202;-63
2023/12/10 03:36:45;;;;;;;16.50;3.57;;;;;;;6.67;100.00;99075.28;5070016;28;20534;-64
2023/12/10 03:39:10;;;;;;;16.63;3.87;;;;;;;6.63;100.00;99082.28;5068225;28;20347;-64
2023/12/10 03:41:35;;;;;;;15.50;3.40;;;;;;;6.74;100.00;99071.47;5071999;28;20228;-64
2023/12/10 03:44:01;;;;;;;16.23;3.43;;;;;;;6.77;100.00;99084.09;5068829;28;20654;-64
2023/12/10 03:46:26;;;;;;;16.67;3.97;;;;;;;6.75;100.00;99083.34;5069330;28;20263;-63
2023/12/10 03:48:51;;;;;;;19.63;3.87;;;;;;;6.75;100.00;99085.09;5068698;28;20188;-63
2023/12/10 03:51:17;;;;;;;20.73;4.10;;;;;;;6.77;100.00;99094.31;5062862;28;20704;-64
2023/12/10 03:53:42;;;;;;;16.53;4.73;;;;;;;6.76;100.00;99104.63;5070552;28;20586;-64
2023/12/10 03:56:09;;;;;;;22.60;4.53;;;;;;;6.88;100.00;99101.38;5071510;28;20519;-64
2023/12/10 03:58:35;;;;;;;17.20;4.23;;;;;;;6.84;100.00;99117.81;5070508;28;20184;-63
2023/12/10 04:01:00;;;;;;;10.43;3.90;;;;;;;6.83;100.00;99123.00;5068769;28;20373;-63
2023/12/10 04:03:25;;;;;;;22.07;4.70;;;;;;;6.72;100.00;99114.22;5078673;28;20298;-63
2023/12/10 04:05:51;;;;;;;15.87;4.60;;;;;;;6.65;100.00;99112.03;5071362;28;20177;-63
2023/12/10 04:08:16;;;;;;;16.20;4.00;;;;;;;6.58;100.00;99124.34;5070121;28;20192;-63
2023/12/10 04:10:41;;;;;;;20.70;5.60;;;;;;;6.56;100.00;99129.53;5065269;28;20239;-64
2023/12/10 04:13:07;;;;;;;18.80;4.47;;;;;;;6.43;100.00;99126.78;5081030;28;20523;-63
2023/12/10 04:15:32;;;;;;;15.70;4.67;;;;;;;6.42;100.00;99132.00;5071196;28;20180;-63
2023/12/10 04:17:59;;;;;;;19.07;4.13;;;;;;;6.39;100.00;99139.84;5070262;28;20227;-63
2023/12/10 04:20:24;;;;;;;20.40;3.60;;;;;;;6.39;100.00;99140.66;5051003;28;20242;-63
2023/12/10 04:22:50;;;;;;;19.67;4.67;;;;;;;6.48;100.00;99141.88;5083041;28;20200;-63
2023/12/10 04:25:15;;;;;;;16.93;4.93;;;;;;;6.60;100.00;99154.00;5071095;28;20280;-63
2023/12/10 04:27:40;;;;;;;18.80;4.40;;;;;;;6.68;100.00;99145.13;5069793;28;20183;-63
2023/12/10 04:30:06;;;;;;;17.63;3.83;;;;;;;6.59;100.00;99154.91;5052962;27;20204;-63
2023/12/10 04:32:32;;;;;;;14.50;3.80;;;;;;;6.67;100.00;99157.06;5075732;28;20228;-63
2023/12/10 04:34:57;;;;;;;17.73;4.27;;;;;;;6.60;100.00;99164.22;5070807;28;20176;-63
2023/12/10 04:37:22;;;;;;;18.17;4.43;;;;;;;6.65;100.00;99170.81;5069915;28;20211;-63
2023/12/10 04:39:48;;;;;;;13.93;3.60;;;;;;;6.72;100.00;99172.16;5068680;28;20180;-63
2023/12/10 04:42:13;;;;;;;18.23;4.60;;;;;;;6.62;100.00;99177.75;5072567;28;20224;-62
2023/12/10 04:44:38;;;;;;;14.17;3.80;;;;;;;6.53;100.00;99170.56;5069963;28;20317;-62
2023/12/10 04:47:04;;;;;;;12.77;3.93;;;;;;;6.52;100.00;99152.78;5070767;28;20546;-62
2023/12/10 04:49:29;;;;;;;17.57;4.57;;;;;;;6.49;100.00;99166.53;5070795;28;20616;-62
2023/12/10 04:51:54;;;;;;;19.60;4.03;;;;;;;6.54;100.00;99168.84;5062984;28;20220;-63
2023/12/10 04:54:20;;;;;;;21.17;4.33;;;;;;;6.58;100.00;99176.25;5070723;28;20203;-63
2023/12/10 04:56:45;;;;;;;21.23;4.67;;;;;;;6.66;100.00;99185.25;5069936;28;20414;-62
2023/12/10 04:59:10;;;;;;;19.10;4.40;;;;;;;6.77;100.00;99186.34;5070122;28;20196;-63
2023/12/10 05:01:36;;;;;;;19.70;4.10;;;;;;;6.90;100.00;99189.06;5072937;28;20223;-63
2023/12/10 05:04:01;;;;;;;14.67;4.03;;;;;;;6.98;100.00;99180.97;5055843;28;20197;-63
2023/12/10 05:06:26;;;;;;;18.60;4.20;;;;;;;6.93;100.00;99188.91;5061776;28;20177;-63
2023/12/10 05:08:52;;;;;;;21.63;4.50;;;;;;;7.02;100.00;99199.53;5070350;28;20177;-63
2023/12/10 05:11:17;;;;;;;14.77;3.60;;;;;;;7.07;100.00;99188.16;5070064;28;20281;-63
2023/12/10 05:13:43;;;;;;;17.57;3.57;;;;;;;7.00;100.00;99180.91;5066647;28;20212;-62
2023/12/10 05:16:08;;;;;;;19.50;5.27;;;;;;;7.05;100.00;99174.59;5070817;28;20227;-63
2023/12/10 05:18:33;;;;;;;22.13;4.40;;;;;;;7.03;100.00;99181.56;5069204;28;20231;-62
2023/12/10 05:20:59;;;;;;;22.07;4.13;;;;;;;6.95;100.00;99181.16;5069427;28;20590;-63
2023/12/10 05:23:24;;;;;;;15.60;3.73;;;;;;;7.01;100.00;99187.63;5081506;28;20210;-63
2023/12/10 05:25:50;;;;;;;20.10;5.03;;;;;;;6.91;100.00;99185.59;5074425;28;20200;-63
2023/12/10 05:28:15;;;;;;;18.07;4.43;;;;;;;6.97;100.00;99204.91;5060260;28;20185;-63
2023/12/10 05:30:41;;;;;;;21.23;4.60;;;;;;;7.00;100.00;99206.47;5054820;28;20231;-62
2023/12/10 05:33:06;;;;;;;20.10;4.80;;;;;;;7.17;100.00;99202.97;5069555;28;20180;-63
2023/12/10 05:35:32;;;;;;;17.50;4.17;;;;;;;7.10;100.00;99205.88;5060121;28;20169;-63
2023/12/10 05:37:57;;;;;;;16.87;4.33;;;;;;;7.11;100.00;99214.38;5064163;28;20250;-63
2023/12/10 05:40:25;;;;;;;19.97;4.57;;;;;;;7.08;100.00;99224.75;5052522;28;20279;-63
2023/12/10 05:42:51;;;;;;;16.37;3.77;;;;;;;7.07;100.00;99221.38;5071186;28;20207;-64
2023/12/10 05:45:16;;;;;;;15.10;3.93;;;;;;;7.08;100.00;99227.31;5060117;28;20177;-63
2023/12/10 05:47:41;;;;;;;20.70;4.40;;;;;;;7.06;100.00;99224.03;5063868;28;20535;-63
2023/12/10 05:50:08;;;;;;;17.73;4.47;;;;;;;7.03;100.00;99225.03;5059599;28;20322;-63
2023/12/10 05:52:33;;;;;;;20.47;4.10;;;;;;;7.06;100.00;99218.94;5068476;28;20188;-63
2023/12/10 05:54:58;;;;;;;22.73;5.07;;;;;;;7.04;100.00;99228.41;5064591;28;20177;-63
2023/12/10 05:57:24;;;;;;;20.03;4.37;;;;;;;7.05;100.00;99232.63;5068892;28;20173;-63
2023/12/10 05:59:49;;;;;;;19.33;4.80;;;;;;;7.04;100.00;99236.88;5053998;28;20583;-63
2023/12/10 06:02:14;;;;;;;15.30;4.10;;;;;;;7.12;100.00;99226.25;5058460;28;20781;-63
2023/12/10 06:04:40;;;;;;;18.63;4.50;;;;;;;7.22;100.00;99232.53;5064149;28;20180;-63
2023/12/10 06:07:05;;;;;;;19.70;4.40;;;;;;;7.23;100.00;99239.28;5072752;28;20200;-64
2023/12/10 06:09:30;;;;;;;29.00;4.53;;;;;;;7.38;100.00;99235.06;5073080;28;20267;-63
2023/12/10 06:11:56;;;;;;;22.63;5.03;;;;;;;7.33;100.00;99241.34;5073876;28;20330;-62
2023/12/10 06:14:21;;;;;;;18.37;4.37;;;;;;;7.32;100.00;99262.69;5064849;28;20191;-63
2023/12/10 06:16:46;;;;;;;22.70;4.73;;;;;;;7.35;100.00;99253.13;5072168;28;20663;-63
2023/12/10 06:19:11;;;;;;;18.80;4.27;;;;;;;7.42;100.00;99263.88;5072797;28;20217;-63
2023/12/10 06:21:37;;;;;;;19.07;4.53;;;;;;;7.35;100.00;99265.09;5074147;28;20582;-63
2023/12/10 06:24:03;;;;;;;20.40;4.60;;;;;;;7.35;100.00;99268.47;5075949;28;20203;-63
2023/12/10 06:26:28;;;;;;;14.13;4.40;;;;;;;7.41;100.00;99268.16;5071392;28;20243;-63
2023/12/10 06:28:54;;;;;;;12.63;3.70;;;;;;;7.45;100.00;99271.38;5072693;28;20179;-63
2023/12/10 06:31:20;;;;;;;16.37;4.33;;;;;;;7.40;100.00;99276.72;5070786;28;20220;-63
2023/12/10 06:33:45;;;;;;;18.87;3.83;;;;;;;7.44;100.00;99279.94;5077283;28;20181;-63
2023/12/10 06:36:11;;;;;;;19.00;4.33;;;;;;;7.47;100.00;99289.19;5071022;28;20197;-64
2023/12/10 06:38:37;;;;;;;15.27;4.07;;;;;;;7.37;100.00;99297.38;5070772;28;20239;-63
2023/12/10 06:41:02;;;;;;;17.83;3.80;;;;;;;7.34;100.00;99289.03;5067936;28;20295;-62
2023/12/10 06:43:28;;;;;;;14.30;4.10;;;;;;;7.34;100.00;99296.72;5077007;28;20746;-63
2023/12/10 06:45:58;;;;;;;17.97;4.47;;;;;;;7.42;100.00;99295.38;5070908;28;20181;-63
2023/12/10 06:48:23;;;;;;;23.73;4.37;;;;;;;7.44;100.00;99295.28;5071434;28;20266;-63
2023/12/10 06:50:48;;;;;;;12.07;4.47;;;;;;;7.35;100.00;99306.03;5041750;28;20212;-62
2023/12/10 06:53:14;;;;;;;14.13;4.00;;;;;;;7.35;100.00;99309.41;5072091;28;20252;-63
2023/12/10 06:55:39;;;;;;;18.13;4.63;;;;;;;7.35;100.00;99311.16;5072409;28;20181;-64
2023/12/10 06:58:04;;;;;;;16.07;3.97;;;;;;;7.34;100.00;99315.44;5072024;28;20283;-64
2023/12/10 07:00:30;;;;;;;24.30;5.10;;;;;;;7.27;100.00;99320.06;5062194;28;20694;-64
2023/12/10 07:02:56;;;;;;;19.20;4.53;;;;;;;7.34;100.00;99335.09;5064336;28;20208;-64
2023/12/10 07:05:21;;;;;;;17.77;4.77;;;;;;;7.29;100.00;99342.19;5052560;28;20230;-64
2023/12/10 07:07:47;;;;;;;17.23;4.33;;;;;;;7.26;100.00;99328.66;5052083;28;20268;-63
2023/12/10 07:10:12;;;;;;;16.40;4.30;;;;;;;7.32;100.00;99336.88;5043823;28;20592;-63
2023/12/10 07:12:37;;;;;;;16.37;4.00;;;;;;;7.22;100.00;99344.25;5066437;28;20260;-63
2023/12/10 07:15:03;;;;;;;21.30;4.17;;;;;;;7.37;100.00;99356.22;5054189;28;20647;-63
2023/12/10 07:17:28;;;;;;;21.47;5.23;;;;;;;7.42;100.00;99355.97;5052449;28;20186;-63
2023/12/10 07:19:54;;;;;;;20.03;4.33;;;;;;;7.48;100.00;99355.66;5055607;28;20186;-63
2023/12/10 07:22:19;;;;;;;19.10;4.70;;;;;;;7.46;100.00;99365.13;5056341;28;20237;-64
2023/12/10 07:24:44;;;;;;;18.47;4.00;;;;;;;7.55;100.00;99362.09;5057678;28;20209;-64
2023/12/10 07:27:10;;;;;;;21.07;4.60;;;;;;;7.61;100.00;99366.03;5055317;28;20173;-64
2023/12/10 07:29:35;;;;;;;16.17;4.47;;;;;;;7.58;100.00;99364.47;5057540;28;20272;-64
2023/12/10 07:32:00;;;;;;;15.03;4.13;;;;;;;7.68;100.00;99374.25;5056961;28;20247;-64
2023/12/10 07:34:26;;;;;;;15.60;4.40;;;;;;;7.61;100.00;99366.03;5061655;28;20712;-64
2023/12/10 07:36:51;;;;;;;14.60;4.00;;;;;;;7.61;100.00;99360.94;5060415;28;20240;-64
2023/12/10 07:39:17;;;;;;;15.87;3.93;;;;;;;7.63;100.00;99376.19;5054562;28;20193;-64
2023/12/10 07:41:42;;;;;;;16.27;3.70;;;;;;;7.74;100.00;99384.16;5054045;28;20607;-64
2023/12/10 07:44:07;;;;;;;15.20;3.93;;;;;;;7.83;100.00;99388.75;5055842;28;20209;-64
2023/12/10 07:46:33;;;;;;;14.53;4.30;;;;;;;7.84;100.00;99389.56;5058179;28;20181;-63
2023/12/10 07:48:58;;;;;;;12.43;4.00;;;;;;;7.85;100.00;99398.91;5057308;28;20189;-63
2023/12/10 07:51:24;;;;;;;17.07;3.63;;;;;;;7.87;100.00;99386.84;5056941;28;20737;-63
2023/12/10 07:53:49;;;;;;;14.77;3.67;;;;;;;7.97;100.00;99385.44;5051785;28;20220;-63
2023/12/10 07:56:14;;;;;;;21.30;4.83;;;;;;;7.84;100.00;99381.88;5071650;28;20212;-63
2023/12/10 07:58:40;;;;;;;15.30;3.70;;;;;;;7.82;100.00;99394.78;5058281;28;20649;-63
2023/12/10 08:01:05;;;;;;;18.97;4.03;;;;;;;7.71;100.00;99391.97;5050147;28;20208;-63
2023/12/10 08:03:30;;;;;;;14.53;4.63;;;;;;;7.77;100.00;99389.09;5054110;28;20605;-63
2023/12/10 08:05:56;;;;;;;15.67;3.70;;;;;;;7.83;100.00;99405.88;5057076;28;20664;-64
2023/12/10 08:08:22;;;;;;;18.47;5.07;;;;;;;7.76;100.00;99392.56;5061711;28;20545;-64
2023/12/10 08:10:47;;;;;;;15.20;4.27;;;;;;;7.70;100.00;99398.00;5062077;28;20257;-64
2023/12/10 08:13:12;;;;;;;18.50;3.73;;;;;;;7.76;100.00;99405.34;5072769;28;20231;-64
2023/12/10 08:15:38;;;;;;;16.17;3.97;;;;;;;7.80;100.00;99404.28;5067313;28;20180;-64
2023/12/10 08:18:03;;;;;;;18.10;4.27;;;;;;;7.87;100.00;99410.72;5063477;28;20279;-63
2023/12/10 08:20:29;;;;;;;15.87;3.80;;;;;;;7.88;100.00;99414.94;5060426;28;20224;-64
2023/12/10 08:22:54;;;;;;;16.23;4.13;;;;;;;7.86;100.00;99421.03;5075592;28;20559;-64
2023/12/10 08:25:19;;;;;;;10.70;4.00;;;;;;;7.97;100.00;99417.91;5067750;28;20188;-64
2023/12/10 08:27:44;;;;;;;18.30;4.63;;;;;;;8.02;100.00;99418.47;5063917;28;20177;-64
2023/12/10 08:30:10;;;;;;;18.90;4.27;;;;;;;8.04;100.00;99419.22;5037988;27;20176;-64
2023/12/10 08:32:36;;;;;;;10.10;3.53;;;;;;;8.05;100.00;99437.06;5077823;28;20186;-63
2023/12/10 08:35:01;;;;;;;10.23;3.63;;;;;;;8.28;100.00;99439.28;5067443;28;20184;-64
2023/12/10 08:37:26;;;;;;;16.73;4.00;;;;;;;8.16;100.00;99431.38;5062921;28;20239;-64
2023/12/10 08:39:52;;;;;;;14.53;4.10;;;;;;;8.08;100.00;99451.44;5067754;28;20636;-64
2023/12/10 08:42:17;;;;;;;13.93;3.77;;;;;;;8.22;100.00;99448.97;5069654;28;20298;-64
2023/12/10 08:44:42;;;;;;;18.07;4.03;;;;;;;8.31;100.00;99452.75;5066604;28;20192;-64
2023/12/10 08:47:08;;;;;;;15.33;3.10;;;;;;;8.60;100.00;99458.00;5063235;28;20204;-64
2023/12/10 08:49:33;;;;;;;17.13;4.00;;;;;;;8.66;100.00;99452.53;5066063;28;20169;-63
2023/12/10 08:51:59;;;;;;;19.27;4.10;;;;;;;8.80;100.00;99456.84;5059118;28;20225;-64
2023/12/10 08:54:24;;;;;;;12.37;3.50;;;;;;;8.81;100.00;99434.63;5051932;28;20178;-64
2023/12/10 08:56:49;;;;;;;15.93;3.57;;;;;;;8.77;100.00;99446.78;5053818;28;20203;-64
2023/12/10 08:59:15;;;;;;;16.43;4.03;;;;;;;8.81;100.00;99444.88;5055075;28;20181;-64
2023/12/10 09:01:41;;;;;;;12.13;3.37;;;;;;;8.82;100.00;99449.91;5057334;28;20212;-65
2023/12/10 09:04:06;;;;;;;11.50;3.47;;;;;;;8.89;100.00;99452.94;5063313;28;20232;-65
2023/12/10 09:06:32;;;;;;;19.33;3.97;;;;;;;9.00;100.00;99442.06;5074052;28;20631;-64
2023/12/10 09:08:57;;;;;;;13.70;3.47;;;;;;;9.12;100.00;99451.59;5074093;28;20192;-64
2023/12/10 09:11:23;;;;;;;13.23;3.57;;;;;;;9.77;100.00;99459.72;5074872;28;20232;-64
2023/12/10 09:13:48;;;;;;;23.73;4.17;;;;;;;10.11;100.00;99466.19;5078766;28;20187;-64
2023/12/10 09:16:16;;;;;;;13.20;3.10;;;;;;;9.77;100.00;99475.97;5073719;28;20640;-65
2023/12/10 09:18:41;;;;;;;15.40;4.17;;;;;;;9.73;100.00;99471.94;5071869;28;20675;-64
2023/12/10 09:21:07;;;;;;;14.93;3.33;;;;;;;9.73;100.00;99477.06;5072175;28;20269;-64
2023/12/10 09:23:34;;;;;;;9.10;3.20;;;;;;;9.72;100.00;99470.28;5079411;28;20200;-64
2023/12/10 09:25:59;;;;;;;12.50;3.40;;;;;;;9.65;100.00;99490.38;5073184;28;20210;-64
2023/12/10 09:28:25;;;;;;;10.83;3.23;;;;;;;9.63;100.00;99489.66;5070169;28;20297;-65
2023/12/10 09:30:50;;;;;;;12.93;3.37;;;;;;;9.62;100.00;99485.41;5069363;28;20253;-65
2023/12/10 09:33:15;;;;;;;15.43;3.80;;;;;;;9.49;100.00;99490.47;5079108;28;20200;-64
2023/12/10 09:35:41;;;;;;;12.10;3.73;;;;;;;9.51;100.00;99501.50;5072436;28;20694;-65
2023/12/10 09:38:06;;;;;;;10.37;3.60;;;;;;;10.41;100.00;99496.03;5068672;28;20282;-64
2023/12/10 09:40:33;;;;;;;19.30;3.70;;;;;;;11.50;100.00;99502.69;5065855;28;20236;-65
2023/12/10 09:42:58;;;;;;;12.53;3.67;;;;;;;11.60;100.00;99495.16;5079312;28;20280;-64
2023/12/10 09:45:24;;;;;;;15.83;4.43;;;;;;;12.30;100.00;99506.63;5072093;28;20306;-65
2023/12/10 09:47:50;;;;;;;13.60;3.77;;;;;;;12.25;100.00;99513.88;5063823;28;20238;-64
2023/12/10 09:50:17;;;;;;;11.83;3.17;;;;;;;13.05;100.00;99509.84;5057060;28;20165;-64
2023/12/10 09:52:42;;;;;;;10.13;3.57;;;;;;;12.90;100.00;99515.19;5071798;28;20619;-64
2023/12/10 09:55:09;;;;;;;12.80;3.60;;;;;;;13.31;100.00;99500.16;5061664;28;20185;-65
2023/12/10 09:57:35;;;;;;;12.30;3.70;;;;;;;13.24;100.00;99511.88;5072158;28;20181;-64
2023/12/10 10:00:00;;;;;;;13.10;3.97;;;;;;;12.09;100.00;99511.56;5073549;28;20498;-65
2023/12/10 10:02:33;;;;;;;13.40;3.77;;;;;;;11.38;100.00;99516.38;5064745;28;20748;-64
2023/12/10 10:04:58;;;;;;;13.67;3.97;;;;;;;10.93;100.00;99512.44;5073626;28;20192;-63
2023/12/10 10:07:24;;;;;;;13.63;4.17;;;;;;;10.74;100.00;99512.81;5066136;28;20186;-64
2023/12/10 10:09:50;;;;;;;18.63;3.47;;;;;;;10.59;100.00;99511.22;5053706;28;20227;-64
2023/12/10 10:12:16;;;;;;;13.17;3.60;;;;;;;10.31;100.00;99507.81;5058905;28;20302;-64
2023/12/10 10:14:55;;;;;;;15.57;3.70;;;;;;;10.02;100.00;99489.88;5053421;28;20182;-64
2023/12/10 10:17:31;;;;;;;12.87;3.87;;;;;;;10.09;100.00;99498.84;5041393;28;20276;-64
2023/12/10 10:19:57;;;;;;;19.17;3.87;;;;;;;9.92;100.00;99492.16;5053618;28;20628;-64
2023/12/10 10:22:26;;;;;;;14.70;3.20;;;;;;;9.77;100.00;99480.28;5058957;28;20247;-65
2023/12/10 10:24:53;;;;;;;20.80;3.97;;;;;;;9.70;100.00;99490.13;5054727;28;20196;-64
2023/12/10 10:27:18;;;;;;;15.07;3.63;;;;;;;9.66;100.00;99491.19;5052265;28;20276;-64
2023/12/10 10:29:44;;;;;;;18.60;3.63;;;;;;;9.65;100.00;99481.84;5054084;28;20197;-65
2023/12/10 10:32:15;;;;;;;14.10;3.40;;;;;;;9.73;100.00;99479.63;5043694;28;20227;-65
2023/12/10 10:34:42;;;;;;;16.37;3.57;;;;;;;9.72;100.00;99482.31;5054475;28;20270;-64
2023/12/10 10:37:08;;;;;;;13.87;3.20;;;;;;;9.64;100.00;99478.47;5053343;28;20188;-64
2023/12/10 10:39:33;;;;;;;17.73;4.13;;;;;;;9.65;100.00;99485.25;5054540;28;20633;-64
2023/12/10 10:42:04;;;;;;;15.33;3.80;;;;;;;9.63;100.00;99486.25;5057856;28;20231;-64
2023/12/10 10:44:30;;;;;;;12.57;4.00;;;;;;;9.64;100.00;99487.91;5053447;28;20201;-64
2023/12/10 10:46:57;;;;;;;17.23;4.10;;;;;;;9.60;100.00;99492.41;5053116;28;20251;-64
2023/12/10 10:49:23;;;;;;;11.13;3.40;;;;;;;9.64;100.00;99499.00;5053717;28;20185;-64
2023/12/10 10:51:48;;;;;;;14.57;4.40;;;;;;;9.66;100.00;99498.91;5056343;28;20274;-64
2023/12/10 10:54:14;;;;;;;14.63;3.47;;;;;;;9.75;100.00;99503.50;5054502;28;20180;-64
2023/12/10 10:56:39;;;;;;;15.73;3.57;;;;;;;9.75;100.00;99512.94;5050883;28;20184;-64
2023/12/10 10:59:31;;;;;;;12.30;3.73;;;;;;;9.78;100.00;99505.06;5052784;28;20260;-65
2023/12/10 11:02:00;;;;;;;14.47;3.83;;;;;;;9.83;100.00;99503.84;5057252;28;20256;-64
2023/12/10 11:04:34;;;;;;;12.20;3.43;;;;;;;9.79;100.00;99501.56;5053037;28;20197;-65
2023/12/10 11:07:00;;;;;;;16.13;3.93;;;;;;;9.76;100.00;99497.44;5052202;28;20190;-65
2023/12/10 11:09:25;;;;;;;16.83;3.57;;;;;;;9.73;100.00;99500.19;5053052;28;20243;-65
2023/12/10 11:11:50;;;;;;;17.43;4.07;;;;;;;9.72;100.00;99500.28;5056619;28;20224;-64
2023/12/10 11:14:23;;;;;;;13.73;3.77;;;;;;;9.77;100.00;99500.84;5055060;28;20189;-65
2023/12/10 11:17:02;;;;;;;18.83;4.73;;;;;;;9.78;100.00;99503.31;5052477;28;20543;-65